| time (UTC) | temp F | wind direction | speed MPH | gust MPH | rain 1hr in | rain 24hr in | rain mn in | humidity % | barometer mb |
| 20260507003217 | 67 | 347 | 1.0 | 5.0 | 0.00 | 0.00 | 0.00 | 66 | 1020.3 |
| 20260507000242 | 68 | 30 | 3.0 | 4.0 | 0.00 | 0.00 | 0.00 | 64 | 1020.6 |
| 20260506230233 | 70 | 323 | 1.0 | 5.0 | 0.00 | 0.00 | 0.00 | 60 | 1020.9 |
| 20260506223228 | 70 | 339 | 0.0 | 1.0 | 0.00 | 0.00 | 0.00 | 59 | 1020.9 |
| 20260506220225 | 72 | 44 | 0.0 | 5.0 | 0.00 | 0.00 | 0.00 | 56 | 1021.2 |
| 20260506213220 | 71 | 330 | 2.0 | 5.0 | 0.00 | 0.00 | 0.00 | 57 | 1021.4 |
| 20260506210246 | 71 | 344 | 3.0 | 4.0 | 0.00 | 0.00 | 0.00 | 59 | 1021.8 |
| 20260506203241 | 71 | 341 | 0.0 | 5.0 | 0.00 | 0.00 | 0.00 | 58 | 1022.0 |
| 20260506200237 | 69 | 360 | 2.0 | 4.0 | 0.00 | 0.00 | 0.00 | 61 | 1022.2 |
| 20260506193232 | 67 | 311 | 1.0 | 6.0 | 0.00 | 0.00 | 0.00 | 64 | 1022.1 |
| 20260506183223 | 65 | 23 | 2.0 | 5.0 | 0.00 | 0.00 | 0.00 | 69 | 1022.3 |
| 20260506180219 | 62 | 355 | 1.0 | 4.0 | 0.00 | 0.00 | 0.00 | 72 | 1022.1 |
| 20260506170240 | 59 | 23 | 2.0 | 5.0 | 0.00 | 0.00 | 0.00 | 79 | 1021.8 |
| 20260506163236 | 55 | 348 | 1.0 | 4.0 | 0.00 | 0.00 | 0.00 | 88 | 1021.5 |
| 20260506153227 | 52 | 332 | 2.0 | 4.0 | 0.00 | 0.00 | 0.00 | 93 | 1021.5 |
| 20260506150222 | 51 | 318 | 0.0 | 0.0 | 0.00 | 0.00 | 0.00 | 94 | 1021.3 |
| 20260506143218 | 51 | 318 | 0.0 | 2.0 | 0.00 | 0.00 | 0.00 | 94 | 1021.4 |
| 20260506140243 | 50 | 318 | 1.0 | 2.0 | 0.00 | 0.00 | 0.00 | 94 | 1021.1 |
| 20260506133239 | 50 | 318 | 0.0 | 2.0 | 0.00 | 0.00 | 0.00 | 94 | 1020.7 |
| 20260506130235 | 50 | 318 | 0.0 | 2.0 | 0.00 | 0.00 | 0.00 | 94 | 1020.4 |
| 20260506123231 | 50 | 319 | 1.0 | 2.0 | 0.00 | 0.00 | 0.00 | 94 | 1020.3 |
| 20260506120226 | 50 | 319 | 0.0 | 0.0 | 0.00 | 0.00 | 0.00 | 94 | 1020.3 |
| 20260506113222 | 50 | 319 | 0.0 | 1.0 | 0.00 | 0.00 | 0.00 | 94 | 1020.1 |
| 20260506110217 | 50 | 319 | 0.0 | 3.0 | 0.00 | 0.00 | 0.00 | 93 | 1020.0 |
| 20260506103243 | 50 | 318 | 0.0 | 0.0 | 0.00 | 0.00 | 0.00 | 93 | 1020.0 |
| 20260506100238 | 51 | 318 | 0.0 | 0.0 | 0.00 | 0.00 | 0.00 | 92 | 1020.0 |
| 20260506093234 | 51 | 318 | 0.0 | 2.0 | 0.00 | 0.00 | 0.00 | 92 | 1020.1 |
| 20260506090230 | 51 | 319 | 0.0 | 0.0 | 0.00 | 0.00 | 0.00 | 92 | 1019.9 |
| 20260506083225 | 51 | 319 | 1.0 | 3.0 | 0.00 | 0.00 | 0.00 | 91 | 1020.0 |
| 20260506080221 | 51 | 318 | 1.0 | 3.0 | 0.00 | 0.00 | 0.00 | 91 | 1019.8 |
| 20260506073216 | 51 | 318 | 1.0 | 2.0 | 0.00 | 0.00 | 0.00 | 90 | 1019.7 |
| 20260506070243 | 52 | 264 | 1.0 | 3.0 | 0.00 | 0.00 | 0.00 | 90 | 1019.6 |
| 20260506060234 | 52 | 264 | 0.0 | 1.0 | 0.00 | 0.00 | 0.00 | 90 | 1019.1 |
| 20260506050226 | 52 | 264 | 0.0 | 0.0 | 0.00 | 0.00 | 0.00 | 91 | 1018.9 |
| 20260506040246 | 52 | 264 | 0.0 | 1.0 | 0.00 | 0.00 | 0.00 | 90 | 1018.2 |
| 20260506033243 | 52 | 264 | 0.0 | 0.0 | 0.00 | 0.00 | 0.00 | 88 | 1017.6 |
| 20260506030238 | 53 | 290 | 0.0 | 4.0 | 0.00 | 0.00 | 0.00 | 86 | 1017.3 |
| 20260506023233 | 53 | 261 | 0.0 | 4.0 | 0.00 | 0.00 | 0.00 | 84 | 1016.8 |